createdAt,value
2019-03-28T00:00:44.131Z,14.58
2019-03-28T00:03:12.555Z,15.53
2019-03-28T00:05:41.328Z,14.03
2019-03-28T00:08:12.388Z,15.60
2019-03-28T00:10:39.758Z,14.25
2019-03-28T00:13:14.793Z,14.15
2019-03-28T00:15:43.608Z,14.40
2019-03-28T00:18:11.993Z,14.13
2019-03-28T00:20:40.484Z,15.23
2019-03-28T00:23:26.774Z,14.70
2019-03-28T00:25:55.152Z,15.20
2019-03-28T00:28:23.534Z,15.05
2019-03-28T00:30:52.026Z,17.30
2019-03-28T00:33:20.509Z,16.50
2019-03-28T00:35:48.994Z,16.30
2019-03-28T00:38:17.374Z,16.77
2019-03-28T00:40:45.818Z,14.70
2019-03-28T00:43:20.785Z,14.95
2019-03-28T00:45:49.747Z,14.35
2019-03-28T00:48:19.640Z,15.78
2019-03-28T00:50:48.060Z,16.67
2019-03-28T00:53:17.844Z,17.67
2019-03-28T00:55:46.364Z,16.17
2019-03-28T00:58:14.714Z,18.52
2019-03-28T01:00:43.493Z,19.62
2019-03-28T01:03:11.857Z,20.02
2019-03-28T01:05:40.385Z,19.87
2019-03-28T01:08:09.174Z,19.15
2019-03-28T01:10:37.951Z,18.82
2019-03-28T01:13:13.448Z,19.95
2019-03-28T01:15:42.119Z,19.02
2019-03-28T01:18:16.797Z,20.05
2019-03-28T01:20:45.219Z,18.37
2019-03-28T01:23:18.954Z,19.07
2019-03-28T01:25:47.368Z,20.23
2019-03-28T01:28:16.222Z,18.80
2019-03-28T01:30:44.927Z,18.42
2019-03-28T01:33:13.321Z,20.20
2019-03-28T01:35:42.247Z,18.98
2019-03-28T01:38:17.234Z,19.70
2019-03-28T01:40:45.913Z,20.20
2019-03-28T01:43:14.856Z,18.80
2019-03-28T01:45:43.316Z,18.42
2019-03-28T01:48:18.316Z,19.60
2019-03-28T01:50:46.789Z,19.87
2019-03-28T01:53:19.026Z,19.80
2019-03-28T01:55:47.937Z,20.72
2019-03-28T01:58:21.009Z,19.20
2019-03-28T02:00:49.362Z,21.87
2019-03-28T02:03:24.263Z,21.52
2019-03-28T02:05:52.635Z,21.65
2019-03-28T02:08:21.392Z,22.52
2019-03-28T02:10:49.795Z,19.65
2019-03-28T02:13:21.086Z,20.25
2019-03-28T02:15:49.898Z,22.42
2019-03-28T02:18:18.321Z,22.52
2019-03-28T02:20:46.682Z,22.17
2019-03-28T02:23:21.911Z,25.05
2019-03-28T02:25:50.620Z,22.50
2019-03-28T02:28:25.935Z,24.20
2019-03-28T02:30:54.776Z,23.62
2019-03-28T02:33:25.785Z,24.07
2019-03-28T02:35:54.242Z,25.55
2019-03-28T02:38:23.213Z,21.93
2019-03-28T02:40:51.650Z,24.07
2019-03-28T02:43:26.466Z,24.85
2019-03-28T02:45:54.820Z,26.07
2019-03-28T02:48:28.087Z,24.52
2019-03-28T02:50:56.697Z,24.25
2019-03-28T02:53:31.226Z,22.90
2019-03-28T02:55:59.590Z,24.30
2019-03-28T02:58:28.000Z,22.82
2019-03-28T03:00:56.763Z,24.85
2019-03-28T03:03:25.150Z,21.57
2019-03-28T03:05:53.551Z,24.92
2019-03-28T03:08:27.384Z,24.90
2019-03-28T03:10:55.795Z,23.70
2019-03-28T03:13:24.502Z,22.73
2019-03-28T03:15:52.991Z,22.17
2019-03-28T03:18:21.842Z,21.40
2019-03-28T03:20:50.446Z,22.85
2019-03-28T03:23:21.851Z,25.17
2019-03-28T03:25:50.818Z,24.65
2019-03-28T03:28:19.247Z,23.55
2019-03-28T03:30:47.639Z,23.83
2019-03-28T03:33:16.013Z,25.65
2019-03-28T03:35:44.394Z,25.57
2019-03-28T03:38:19.506Z,24.67
2019-03-28T03:40:47.857Z,24.23
2019-03-28T03:43:16.703Z,28.02
2019-03-28T03:45:45.072Z,25.85
2019-03-28T03:48:19.591Z,24.82
2019-03-28T03:50:48.699Z,25.05
2019-03-28T03:53:17.444Z,27.37
2019-03-28T03:55:46.178Z,26.45
2019-03-28T03:58:21.501Z,24.87
2019-03-28T04:00:49.878Z,28.20
2019-03-28T04:03:18.244Z,25.88
2019-03-28T04:05:48.139Z,28.98
2019-03-28T04:08:16.575Z,30.60
2019-03-28T04:10:45.080Z,31.30
2019-03-28T04:13:13.772Z,31.95
2019-03-28T04:15:42.310Z,34.83
2019-03-28T04:18:10.659Z,35.90
2019-03-28T04:20:39.080Z,35.10
2019-03-28T04:23:14.494Z,35.52
2019-03-28T04:25:43.440Z,35.10
2019-03-28T04:28:12.618Z,33.85
2019-03-28T04:30:41.606Z,35.00
2019-03-28T04:33:09.973Z,33.78
2019-03-28T04:35:38.380Z,34.23
2019-03-28T04:38:06.889Z,35.70
2019-03-28T04:40:35.379Z,35.17
2019-03-28T04:43:03.724Z,35.43
2019-03-28T04:45:32.276Z,36.65
2019-03-28T04:48:01.504Z,37.10
2019-03-28T04:50:30.473Z,34.67
2019-03-28T04:52:59.395Z,35.43
2019-03-28T04:55:28.014Z,36.17
2019-03-28T04:57:56.796Z,36.50
2019-03-28T05:00:31.827Z,35.38
2019-03-28T05:03:08.806Z,35.73
2019-03-28T05:05:37.462Z,36.63
2019-03-28T05:08:18.224Z,33.13
2019-03-28T05:10:49.645Z,33.15
2019-03-28T05:13:18.364Z,32.55
2019-03-28T05:15:46.769Z,34.40
2019-03-28T05:18:15.191Z,34.25
2019-03-28T05:20:43.566Z,32.13
2019-03-28T05:23:18.883Z,31.35
2019-03-28T05:25:47.867Z,32.20
2019-03-28T05:28:16.546Z,34.08
2019-03-28T05:30:44.949Z,33.67
2019-03-28T05:33:17.311Z,35.85
2019-03-28T05:35:46.083Z,36.33
2019-03-28T05:38:20.123Z,38.48
2019-03-28T05:40:48.476Z,33.65
2019-03-28T05:43:23.903Z,31.82
2019-03-28T05:45:52.395Z,35.28
2019-03-28T05:48:20.880Z,32.45
2019-03-28T05:50:49.696Z,34.38
2019-03-28T05:53:20.750Z,34.03
2019-03-28T05:55:49.209Z,35.65
2019-03-28T05:58:22.511Z,35.13
2019-03-28T06:00:51.422Z,35.33
2019-03-28T06:03:19.855Z,38.70
2019-03-28T06:05:48.708Z,37.58
2019-03-28T06:08:21.905Z,39.92
2019-03-28T06:10:50.396Z,39.08
2019-03-28T06:13:19.203Z,38.98
2019-03-28T06:15:47.970Z,40.65
2019-03-28T06:18:16.751Z,37.38
2019-03-28T06:20:45.423Z,37.03
2019-03-28T06:23:17.768Z,38.05
2019-03-28T06:25:48.207Z,38.38
2019-03-28T06:28:16.788Z,37.35
2019-03-28T06:30:45.156Z,34.30
2019-03-28T06:33:17.993Z,35.95
2019-03-28T06:35:46.358Z,35.45
2019-03-28T06:38:14.730Z,33.60
2019-03-28T06:40:43.233Z,34.55
2019-03-28T06:43:17.848Z,34.05
2019-03-28T06:45:46.607Z,34.75
2019-03-28T06:48:15.329Z,33.23
2019-03-28T06:50:43.857Z,36.77
2019-03-28T06:53:12.654Z,36.15
2019-03-28T06:55:41.222Z,33.78
2019-03-28T06:58:16.027Z,37.53
2019-03-28T07:00:44.392Z,34.63
2019-03-28T07:03:19.600Z,35.60
2019-03-28T07:05:51.225Z,35.50
2019-03-28T07:08:26.238Z,37.53
2019-03-28T07:10:57.792Z,34.50
2019-03-28T07:13:28.684Z,32.28
2019-03-28T07:15:57.118Z,34.40
2019-03-28T07:18:30.498Z,33.95
2019-03-28T07:20:58.957Z,33.23
2019-03-28T07:23:27.438Z,33.13
2019-03-28T07:25:55.787Z,34.03
2019-03-28T07:28:24.449Z,32.38
2019-03-28T07:30:52.851Z,32.48
2019-03-28T07:33:21.353Z,32.98
2019-03-28T07:35:50.153Z,32.93
2019-03-28T07:38:18.856Z,32.30
2019-03-28T07:40:47.540Z,28.87
2019-03-28T07:43:16.336Z,31.12
2019-03-28T07:45:45.123Z,32.63
2019-03-28T07:48:20.485Z,29.23
2019-03-28T07:50:48.905Z,30.80
2019-03-28T07:53:19.705Z,30.17
2019-03-28T07:55:47.457Z,30.37
2019-03-28T07:58:15.814Z,32.30
2019-03-28T08:00:44.231Z,28.98
2019-03-28T08:03:12.602Z,30.95
2019-03-28T08:05:41.067Z,31.05
2019-03-28T08:08:09.439Z,30.08
2019-03-28T08:10:37.882Z,28.50
2019-03-28T08:13:13.477Z,30.32
2019-03-28T08:15:41.950Z,27.90
2019-03-28T08:18:17.115Z,30.08
2019-03-28T08:20:45.863Z,31.87
2019-03-28T08:23:14.266Z,30.12
2019-03-28T08:25:42.659Z,31.73
2019-03-28T08:28:19.120Z,31.40
2019-03-28T08:30:47.744Z,31.68
2019-03-28T08:33:22.952Z,32.15
2019-03-28T08:35:51.390Z,28.87
2019-03-28T08:38:26.707Z,31.82
2019-03-28T08:40:55.464Z,30.32
2019-03-28T08:43:23.929Z,28.15
2019-03-28T08:45:52.367Z,29.70
2019-03-28T08:48:21.239Z,28.12
2019-03-28T08:50:49.627Z,29.35
2019-03-28T08:53:24.687Z,27.20
2019-03-28T08:55:53.065Z,27.30
2019-03-28T08:58:21.947Z,28.70
2019-03-28T09:00:52.712Z,28.65
2019-03-28T09:03:20.819Z,27.15
2019-03-28T09:05:49.223Z,27.40
2019-03-28T09:08:19.351Z,27.62
2019-03-28T09:10:47.735Z,28.73
2019-03-28T09:13:20.813Z,30.20
2019-03-28T09:15:49.595Z,29.63
2019-03-28T09:18:24.929Z,29.87
2019-03-28T09:20:53.302Z,25.92
2019-03-28T09:23:21.775Z,27.25
2019-03-28T09:25:50.254Z,26.68
2019-03-28T09:28:18.739Z,27.48
2019-03-28T09:30:49.767Z,25.45
2019-03-28T09:33:22.319Z,27.30
2019-03-28T09:35:51.189Z,28.17
2019-03-28T09:38:19.708Z,24.35
2019-03-28T09:40:48.224Z,23.47
2019-03-28T09:43:20.266Z,23.15
2019-03-28T09:45:48.690Z,23.90
2019-03-28T09:48:29.507Z,25.45
2019-03-28T09:50:57.891Z,25.92
2019-03-28T09:53:28.996Z,25.00
2019-03-28T09:55:57.639Z,20.45
2019-03-28T09:58:26.169Z,21.27
2019-03-28T10:01:02.771Z,18.35
2019-03-28T10:03:24.968Z,16.37
2019-03-28T10:05:53.760Z,22.37
2019-03-28T10:08:22.123Z,19.80
2019-03-28T10:10:50.966Z,20.17
2019-03-28T10:13:19.757Z,21.80
2019-03-28T10:15:48.213Z,23.25
2019-03-28T10:18:22.403Z,22.67
2019-03-28T10:20:50.815Z,19.85
2019-03-28T10:23:19.200Z,22.35
2019-03-28T10:25:47.694Z,22.40
2019-03-28T10:28:18.811Z,23.15
2019-03-28T10:30:47.570Z,21.50
2019-03-28T10:33:22.170Z,22.07
2019-03-28T10:35:51.061Z,21.27
2019-03-28T10:38:21.766Z,19.60
2019-03-28T10:40:50.486Z,18.20
2019-03-28T10:43:21.666Z,18.20
2019-03-28T10:45:55.667Z,18.35
2019-03-28T10:48:24.169Z,17.55
2019-03-28T10:50:52.901Z,17.98
2019-03-28T10:53:30.189Z,16.42
2019-03-28T10:55:58.994Z,19.25
2019-03-28T10:58:27.381Z,16.87
2019-03-28T11:00:56.527Z,16.12
2019-03-28T11:03:25.171Z,15.18
2019-03-28T11:05:53.665Z,14.65
2019-03-28T11:08:22.082Z,13.43
2019-03-28T11:10:50.731Z,14.15
2019-03-28T11:13:23.816Z,13.43
2019-03-28T11:15:52.255Z,13.75
2019-03-28T11:18:20.634Z,14.10
2019-03-28T11:20:49.295Z,12.53
2019-03-28T11:23:17.744Z,11.78
2019-03-28T11:25:46.235Z,10.58
2019-03-28T11:28:23.440Z,11.57
2019-03-28T11:30:52.564Z,11.18
2019-03-28T11:33:20.995Z,11.28
2019-03-28T11:35:49.873Z,11.15
2019-03-28T11:38:18.227Z,10.13
2019-03-28T11:40:46.611Z,10.00
2019-03-28T11:43:15.422Z,8.33
2019-03-28T11:45:43.790Z,9.10
2019-03-28T11:48:21.554Z,9.13
2019-03-28T11:50:49.974Z,9.53
2019-03-28T11:53:18.376Z,9.65
2019-03-28T11:55:48.857Z,10.08
2019-03-28T11:58:23.191Z,10.53
2019-03-28T12:00:51.931Z,9.85
2019-03-28T12:03:20.357Z,10.50
2019-03-28T12:05:48.859Z,10.43
2019-03-28T12:08:17.212Z,9.73
2019-03-28T12:10:46.035Z,11.22
2019-03-28T12:13:21.038Z,10.35
2019-03-28T12:15:49.524Z,9.40
2019-03-28T12:18:18.579Z,9.35
2019-03-28T12:21:13.896Z,9.15
2019-03-28T12:23:42.299Z,9.25
2019-03-28T12:26:11.103Z,8.93
2019-03-28T12:28:39.529Z,8.00
2019-03-28T12:31:07.896Z,8.65
2019-03-28T12:33:36.598Z,8.20
2019-03-28T12:36:12.107Z,8.25
2019-03-28T12:38:41.005Z,7.28
2019-03-28T12:41:16.420Z,6.60
2019-03-28T12:43:44.804Z,7.25
2019-03-28T12:46:26.349Z,6.97
2019-03-28T12:48:55.039Z,8.90
2019-03-28T12:51:24.206Z,7.00
2019-03-28T12:53:53.016Z,6.83
2019-03-28T12:56:22.166Z,5.62
2019-03-28T12:58:51.098Z,6.12
2019-03-28T13:01:21.893Z,5.35
2019-03-28T13:03:50.297Z,5.58
2019-03-28T13:06:18.934Z,5.20
2019-03-28T13:08:47.402Z,5.05
2019-03-28T13:11:16.121Z,5.58
2019-03-28T13:13:44.463Z,4.70
2019-03-28T13:16:12.879Z,4.30
2019-03-28T13:18:41.599Z,4.05
2019-03-28T13:21:17.040Z,4.28
2019-03-28T13:23:45.773Z,4.10
2019-03-28T13:26:20.470Z,4.40
2019-03-28T13:28:48.934Z,4.40
2019-03-28T13:31:17.623Z,4.83
2019-03-28T13:33:46.074Z,5.28
2019-03-28T13:36:21.599Z,5.45
2019-03-28T13:38:50.366Z,5.40
2019-03-28T13:41:18.714Z,5.15
2019-03-28T13:43:47.153Z,4.37
2019-03-28T13:46:15.811Z,5.03
2019-03-28T13:48:44.283Z,4.00
2019-03-28T13:51:12.931Z,5.87
2019-03-28T13:53:41.627Z,4.35
2019-03-28T13:56:16.437Z,3.90
2019-03-28T13:58:44.873Z,4.15
2019-03-28T14:01:13.630Z,3.33
2019-03-28T14:03:42.042Z,3.50
2019-03-28T14:06:10.681Z,3.17
2019-03-28T14:08:39.048Z,3.65
2019-03-28T14:11:19.104Z,3.20
2019-03-28T14:13:47.618Z,3.67
2019-03-28T14:16:23.704Z,4.53
2019-03-28T14:18:52.817Z,4.60
2019-03-28T14:21:21.485Z,5.37
2019-03-28T14:23:49.858Z,5.83
2019-03-28T14:26:31.480Z,5.15
2019-03-28T14:29:00.285Z,3.70
2019-03-28T14:31:29.071Z,4.67
2019-03-28T14:33:57.792Z,4.67
2019-03-28T14:36:26.190Z,4.53
2019-03-28T14:38:54.852Z,4.17
2019-03-28T14:41:23.293Z,4.50
2019-03-28T14:43:51.741Z,5.33
2019-03-28T14:46:26.413Z,4.67
2019-03-28T14:48:55.001Z,4.85
2019-03-28T14:51:23.424Z,5.12
2019-03-28T14:53:51.779Z,5.40
2019-03-28T14:56:20.491Z,4.60
2019-03-28T14:58:48.966Z,4.15
2019-03-28T15:01:20.897Z,5.10
2019-03-28T15:03:49.675Z,5.60
2019-03-28T15:06:23.350Z,4.45
2019-03-28T15:08:51.756Z,4.70
2019-03-28T15:11:25.118Z,5.15
2019-03-28T15:13:53.558Z,5.47
2019-03-28T15:16:21.947Z,4.87
2019-03-28T15:18:50.725Z,5.30
2019-03-28T15:21:19.145Z,5.37
2019-03-28T15:23:47.571Z,6.05
2019-03-28T15:26:22.406Z,5.80
2019-03-28T15:28:50.837Z,5.47
2019-03-28T15:31:19.325Z,6.00
2019-03-28T15:33:48.197Z,5.08
2019-03-28T15:36:16.589Z,5.80
2019-03-28T15:38:45.026Z,5.30
2019-03-28T15:41:20.302Z,5.85
2019-03-28T15:43:48.750Z,5.53
2019-03-28T15:46:17.510Z,4.60
2019-03-28T15:48:45.893Z,4.35
2019-03-28T15:51:14.280Z,4.90
2019-03-28T15:53:43.037Z,4.58
2019-03-28T15:56:11.427Z,4.42
2019-03-28T15:58:39.855Z,4.60
2019-03-28T16:01:08.274Z,4.78
2019-03-28T16:03:36.716Z,4.05
2019-03-28T16:06:05.107Z,4.00
2019-03-28T16:08:33.818Z,4.40
2019-03-28T16:11:08.807Z,4.10
2019-03-28T16:13:37.664Z,6.15
2019-03-28T16:16:13.314Z,6.65
2019-03-28T16:18:42.085Z,7.53
2019-03-28T16:21:16.911Z,5.47
2019-03-28T16:23:45.611Z,5.62
2019-03-28T16:26:20.099Z,4.45
2019-03-28T16:28:48.543Z,4.58
2019-03-28T16:31:17.319Z,4.87
2019-03-28T16:33:45.757Z,4.17
2019-03-28T16:36:20.703Z,4.10
2019-03-28T16:38:49.099Z,3.67
2019-03-28T16:41:17.562Z,3.42
2019-03-28T16:43:45.956Z,4.10
2019-03-28T16:46:18.109Z,3.70
2019-03-28T16:48:46.892Z,4.10
2019-03-28T16:51:20.580Z,3.83
2019-03-28T16:53:49.070Z,3.98
2019-03-28T16:56:20.411Z,3.37
2019-03-28T16:58:49.334Z,4.03
2019-03-28T17:01:21.882Z,3.95
2019-03-28T17:03:50.625Z,4.65
2019-03-28T17:06:19.093Z,4.28
2019-03-28T17:08:48.121Z,4.00
2019-03-28T17:11:16.576Z,4.75
2019-03-28T17:13:46.460Z,4.90
2019-03-28T17:16:21.840Z,4.12
2019-03-28T17:18:50.301Z,5.05
2019-03-28T17:21:18.807Z,4.80
2019-03-28T17:23:47.786Z,4.97
2019-03-28T17:26:16.260Z,4.60
2019-03-28T17:28:50.836Z,4.50
2019-03-28T17:31:25.918Z,4.87
2019-03-28T17:33:54.731Z,4.92
2019-03-28T17:36:29.518Z,5.58
2019-03-28T17:38:59.410Z,4.87
2019-03-28T17:41:34.314Z,4.50
2019-03-28T17:44:09.271Z,4.62
2019-03-28T17:46:37.717Z,5.42
2019-03-28T17:49:12.553Z,5.47
2019-03-28T17:51:40.951Z,5.53
2019-03-28T17:54:22.747Z,5.30
2019-03-28T17:56:52.423Z,5.08
2019-03-28T17:59:21.379Z,4.97
2019-03-28T18:01:49.817Z,4.70
2019-03-28T18:04:23.155Z,5.72
2019-03-28T18:06:48.600Z,5.03
2019-03-28T18:09:23.067Z,5.08
2019-03-28T18:11:51.470Z,5.37
2019-03-28T18:14:21.282Z,4.95
2019-03-28T18:16:50.613Z,5.55
2019-03-28T18:19:19.016Z,5.33
2019-03-28T18:21:47.863Z,4.67
2019-03-28T18:24:16.561Z,4.92
2019-03-28T18:26:45.057Z,5.62
2019-03-28T18:29:20.353Z,5.72
2019-03-28T18:31:50.810Z,5.58
2019-03-28T18:34:19.532Z,5.75
2019-03-28T18:36:48.219Z,6.97
2019-03-28T18:39:23.179Z,5.42
2019-03-28T18:41:51.664Z,5.62
2019-03-28T18:44:27.344Z,6.37
2019-03-28T18:46:55.766Z,5.67
2019-03-28T18:49:28.464Z,5.72
2019-03-28T18:51:56.914Z,5.80
2019-03-28T18:54:32.224Z,6.90
2019-03-28T18:57:03.186Z,6.05
2019-03-28T18:59:31.651Z,5.12
2019-03-28T19:02:00.669Z,5.92
2019-03-28T19:04:29.109Z,6.05
2019-03-28T19:06:57.896Z,5.92
2019-03-28T19:09:26.845Z,6.42
2019-03-28T19:11:58.593Z,6.15
2019-03-28T19:14:27.118Z,5.62
2019-03-28T19:16:55.570Z,5.92
2019-03-28T19:19:38.308Z,6.10
2019-03-28T19:21:55.942Z,6.62
2019-03-28T19:24:24.662Z,6.72
2019-03-28T19:26:53.136Z,5.92
2019-03-28T19:29:21.647Z,5.80
2019-03-28T19:31:50.107Z,5.30
2019-03-28T19:34:18.778Z,6.22
2019-03-28T19:36:47.436Z,6.80
2019-03-28T19:39:23.057Z,5.87
2019-03-28T19:41:51.416Z,6.55
2019-03-28T19:44:26.952Z,5.62
2019-03-28T19:46:55.616Z,5.70
2019-03-28T19:49:24.777Z,6.20
2019-03-28T19:51:53.187Z,6.45
2019-03-28T19:54:21.628Z,6.25
2019-03-28T19:56:50.052Z,7.37
2019-03-28T19:59:25.924Z,6.30
2019-03-28T20:01:54.349Z,7.08
2019-03-28T20:04:22.761Z,6.67
2019-03-28T20:06:51.298Z,7.22
2019-03-28T20:09:19.705Z,7.00
2019-03-28T20:11:48.417Z,6.58
2019-03-28T20:14:16.813Z,6.80
2019-03-28T20:16:45.554Z,6.90
2019-03-28T20:19:13.954Z,5.92
2019-03-28T20:21:43.087Z,6.42
2019-03-28T20:24:18.452Z,7.03
2019-03-28T20:26:46.925Z,6.85
2019-03-28T20:29:21.524Z,7.03
2019-03-28T20:31:49.914Z,7.62
2019-03-28T20:34:21.623Z,7.20
2019-03-28T20:36:52.915Z,8.18
2019-03-28T20:39:20.841Z,7.37
2019-03-28T20:41:49.290Z,8.03
2019-03-28T20:44:18.831Z,7.85
2019-03-28T20:46:47.475Z,7.85
2019-03-28T20:49:22.541Z,8.25
2019-03-28T20:51:51.315Z,5.75
2019-03-28T20:54:20.027Z,5.72
2019-03-28T20:57:14.060Z,7.45
2019-03-28T20:59:42.477Z,8.18
2019-03-28T21:02:17.908Z,8.55
2019-03-28T21:04:46.338Z,7.78
2019-03-28T21:07:14.803Z,6.95
2019-03-28T21:09:43.712Z,7.35
2019-03-28T21:12:17.595Z,7.83
2019-03-28T21:14:46.030Z,8.98
2019-03-28T21:17:21.521Z,9.10
2019-03-28T21:19:49.953Z,8.53
2019-03-28T21:22:18.789Z,8.45
2019-03-28T21:24:47.509Z,8.15
2019-03-28T21:27:15.912Z,8.23
2019-03-28T21:29:49.246Z,7.97
2019-03-28T21:32:21.312Z,9.65
2019-03-28T21:34:49.709Z,9.83
2019-03-28T21:37:20.687Z,9.38
2019-03-28T21:39:49.085Z,8.98
2019-03-28T21:42:17.521Z,9.43
2019-03-28T21:44:45.919Z,8.93
2019-03-28T21:47:18.009Z,8.60
2019-03-28T21:49:46.432Z,9.55
2019-03-28T21:52:28.977Z,8.53
2019-03-28T21:54:57.402Z,10.63
2019-03-28T21:57:25.844Z,8.38
2019-03-28T21:59:54.278Z,9.33
2019-03-28T22:02:22.719Z,9.78
2019-03-28T22:04:51.522Z,9.58
2019-03-28T22:07:19.924Z,10.10
2019-03-28T22:09:48.365Z,9.73
2019-03-28T22:12:16.768Z,9.08
2019-03-28T22:14:47.996Z,10.03
2019-03-28T22:17:21.798Z,10.28
2019-03-28T22:19:51.670Z,9.90
2019-03-28T22:22:20.722Z,9.88
2019-03-28T22:24:49.524Z,9.70
2019-03-28T22:27:18.395Z,10.13
2019-03-28T22:29:46.969Z,9.88
2019-03-28T22:32:15.520Z,10.45
2019-03-28T22:34:44.199Z,9.45
2019-03-28T22:37:12.834Z,10.00
2019-03-28T22:39:41.317Z,10.03
2019-03-28T22:42:09.705Z,9.53
2019-03-28T22:44:38.625Z,10.85
2019-03-28T22:47:07.416Z,9.70
2019-03-28T22:49:35.870Z,11.43
2019-03-28T22:52:10.987Z,9.73
2019-03-28T22:54:40.401Z,9.20
2019-03-28T22:57:15.770Z,9.55
2019-03-28T22:59:44.686Z,10.00
2019-03-28T23:02:13.080Z,10.20
2019-03-28T23:04:41.593Z,10.35
2019-03-28T23:07:17.113Z,9.58
2019-03-28T23:09:45.593Z,10.95
2019-03-28T23:12:13.998Z,10.10
2019-03-28T23:14:42.516Z,9.85
2019-03-28T23:17:10.852Z,10.88
2019-03-28T23:19:39.620Z,9.90
2019-03-28T23:22:08.407Z,10.30
2019-03-28T23:24:39.042Z,11.35
2019-03-28T23:27:13.747Z,10.80
2019-03-28T23:29:42.452Z,10.88
2019-03-28T23:32:17.566Z,10.88
2019-03-28T23:34:46.014Z,11.33
2019-03-28T23:37:24.762Z,11.25
2019-03-28T23:39:49.044Z,10.82
2019-03-28T23:42:17.837Z,10.98
2019-03-28T23:44:46.645Z,12.13
2019-03-28T23:47:15.050Z,12.37
2019-03-28T23:49:43.810Z,12.60
2019-03-28T23:52:12.480Z,11.97
2019-03-28T23:54:40.875Z,11.68
2019-03-28T23:57:15.731Z,13.25
2019-03-28T23:59:44.178Z,11.65
